createdAt,value
2019-05-11T00:01:44.763Z,101069.69
2019-05-11T00:04:10.635Z,101076.47
2019-05-11T00:06:36.505Z,101065.22
2019-05-11T00:09:04.959Z,101065.81
2019-05-11T00:11:30.817Z,101062.14
2019-05-11T00:13:56.699Z,101062.77
2019-05-11T00:16:23.394Z,101056.99
2019-05-11T00:18:49.262Z,101062.61
2019-05-11T00:21:15.115Z,101058.21
2019-05-11T00:23:40.979Z,101061.09
2019-05-11T00:26:06.846Z,101065.06
2019-05-11T00:28:32.689Z,101063.69
2019-05-11T00:30:58.549Z,101058.28
2019-05-11T00:33:24.416Z,101048.61
2019-05-11T00:35:50.304Z,101055.98
2019-05-11T00:38:16.158Z,101066.11
2019-05-11T00:40:42.009Z,101062.00
2019-05-11T00:43:07.856Z,101064.73
2019-05-11T00:45:33.718Z,101071.59
2019-05-11T00:47:59.569Z,101064.11
2019-05-11T00:50:38.167Z,101060.95
2019-05-11T00:52:53.202Z,101063.13
2019-05-11T00:55:19.065Z,101060.92
2019-05-11T00:57:44.913Z,101046.38
2019-05-11T01:00:11.889Z,101048.45
2019-05-11T01:02:37.978Z,101044.92
2019-05-11T01:05:04.951Z,101044.55
2019-05-11T01:07:30.842Z,101047.37
2019-05-11T01:09:56.661Z,101051.13
2019-05-11T01:12:22.523Z,101056.14
2019-05-11T01:14:48.458Z,101054.26
2019-05-11T01:17:14.378Z,101056.63
2019-05-11T01:19:40.223Z,101047.47
2019-05-11T01:22:06.195Z,101046.61
2019-05-11T01:24:32.351Z,101049.03
2019-05-11T01:26:58.195Z,101048.27
2019-05-11T01:29:24.061Z,101046.05
2019-05-11T01:31:49.918Z,101046.78
2019-05-11T01:34:15.787Z,101045.36
2019-05-11T01:36:41.662Z,101045.36
2019-05-11T01:39:07.508Z,101039.72
2019-05-11T01:41:33.372Z,101037.27
2019-05-11T01:43:59.232Z,101038.69
2019-05-11T01:46:25.085Z,101029.45
2019-05-11T01:48:50.977Z,101039.83
2019-05-11T01:51:16.811Z,101030.25
2019-05-11T01:53:42.659Z,101040.54
2019-05-11T01:56:08.524Z,101029.05
2019-05-11T01:58:34.422Z,101046.92
2019-05-11T02:01:00.281Z,101036.36
2019-05-11T02:03:26.148Z,101034.78
2019-05-11T02:05:52.007Z,101042.08
2019-05-11T02:08:17.870Z,101041.00
2019-05-11T02:10:43.713Z,101035.72
2019-05-11T02:13:09.578Z,101042.19
2019-05-11T02:15:35.425Z,101042.95
2019-05-11T02:18:01.321Z,101041.25
2019-05-11T02:20:27.167Z,101042.95
2019-05-11T02:22:53.035Z,101048.09
2019-05-11T02:25:18.878Z,101040.87
2019-05-11T02:27:44.749Z,101032.06
2019-05-11T02:30:11.407Z,101042.28
2019-05-11T02:32:37.294Z,101041.73
2019-05-11T02:35:06.151Z,101032.25
2019-05-11T02:37:31.998Z,101028.77
2019-05-11T02:39:57.849Z,101030.59
2019-05-11T02:42:23.723Z,101035.17
2019-05-11T02:44:49.608Z,101031.67
2019-05-11T02:47:15.445Z,101038.77
2019-05-11T02:49:41.289Z,101048.11
2019-05-11T02:52:08.070Z,101039.66
2019-05-11T02:54:34.126Z,101051.64
2019-05-11T02:56:59.990Z,101051.43
2019-05-11T02:59:29.653Z,101041.41
2019-05-11T03:01:53.625Z,101049.30
2019-05-11T03:04:19.472Z,101044.94
2019-05-11T03:06:45.334Z,101047.97
2019-05-11T03:09:11.217Z,101049.16
2019-05-11T03:11:54.001Z,101056.64
2019-05-11T03:14:04.837Z,101057.13
2019-05-11T03:16:30.700Z,101053.30
2019-05-11T03:18:56.564Z,101057.07
2019-05-11T03:21:22.410Z,101054.30
2019-05-11T03:23:49.112Z,101050.09
2019-05-11T03:26:14.963Z,101060.05
2019-05-11T03:28:40.842Z,101052.12
2019-05-11T03:31:06.707Z,101062.48
2019-05-11T03:33:32.549Z,101058.91
2019-05-11T03:35:58.413Z,101066.48
2019-05-11T03:38:24.262Z,101056.55
2019-05-11T03:40:50.137Z,101066.59
2019-05-11T03:43:16.003Z,101066.59
2019-05-11T03:45:41.842Z,101067.59
2019-05-11T03:48:07.685Z,101063.00
2019-05-11T03:50:33.552Z,101066.49
2019-05-11T03:52:59.405Z,101072.44
2019-05-11T03:55:25.301Z,101067.86
2019-05-11T03:57:51.114Z,101079.59
2019-05-11T04:00:17.177Z,101068.05
2019-05-11T04:02:43.026Z,101073.89
2019-05-11T04:05:09.217Z,101078.25
2019-05-11T04:07:35.070Z,101072.89
2019-05-11T04:10:00.952Z,101072.92
2019-05-11T04:12:34.708Z,101076.80
2019-05-11T04:14:54.611Z,101074.28
2019-05-11T04:17:21.866Z,101079.12
2019-05-11T04:19:48.536Z,101084.63
2019-05-11T04:22:14.388Z,101088.73
2019-05-11T04:24:40.261Z,101086.62
2019-05-11T04:27:06.137Z,101082.55
2019-05-11T04:29:31.985Z,101100.55
2019-05-11T04:31:57.864Z,101089.38
2019-05-11T04:34:23.744Z,101097.70
2019-05-11T04:36:49.591Z,101096.74
2019-05-11T04:39:15.449Z,101093.89
2019-05-11T04:41:41.297Z,101094.37
2019-05-11T04:44:07.149Z,101105.53
2019-05-11T04:46:33.033Z,101101.94
2019-05-11T04:48:58.881Z,101099.44
2019-05-11T04:51:24.725Z,101112.00
2019-05-11T04:53:50.611Z,101112.13
2019-05-11T04:56:16.466Z,101123.25
2019-05-11T04:58:42.331Z,101113.72
2019-05-11T05:01:08.214Z,101118.17
2019-05-11T05:03:40.728Z,101114.18
2019-05-11T05:06:21.269Z,101130.55
2019-05-11T05:08:29.628Z,101134.53
2019-05-11T05:10:58.638Z,101123.06
2019-05-11T05:13:29.228Z,101132.12
2019-05-11T05:15:51.017Z,101126.05
2019-05-11T05:18:16.873Z,101127.50
2019-05-11T05:20:43.986Z,101133.95
2019-05-11T05:23:10.091Z,101129.50
2019-05-11T05:25:35.959Z,101136.39
2019-05-11T05:28:02.670Z,101127.50
2019-05-11T05:30:28.514Z,101128.54
2019-05-11T05:32:54.395Z,101126.15
2019-05-11T05:35:20.268Z,101136.06
2019-05-11T05:37:46.127Z,101133.71
2019-05-11T05:40:12.181Z,101126.00
2019-05-11T05:42:38.153Z,101136.73
2019-05-11T05:45:05.913Z,101138.30
2019-05-11T05:47:31.781Z,101131.81
2019-05-11T05:49:57.644Z,101145.95
2019-05-11T05:52:23.507Z,101146.17
2019-05-11T05:54:49.360Z,101162.17
2019-05-11T05:57:15.232Z,101162.87
2019-05-11T05:59:41.102Z,101171.96
2019-05-11T06:02:06.957Z,101165.70
2019-05-11T06:04:32.822Z,101173.77
2019-05-11T06:06:58.697Z,101173.97
2019-05-11T06:09:24.551Z,101186.28
2019-05-11T06:11:50.398Z,101193.02
2019-05-11T06:14:16.276Z,101192.91
2019-05-11T06:16:42.160Z,101185.52
2019-05-11T06:19:08.028Z,101189.21
2019-05-11T06:21:33.869Z,101187.94
2019-05-11T06:24:06.150Z,101193.97
2019-05-11T06:26:27.552Z,101195.23
2019-05-11T06:28:53.444Z,101191.14
2019-05-11T06:31:19.294Z,101197.89
2019-05-11T06:33:45.208Z,101204.26
2019-05-11T06:36:11.053Z,101211.09
2019-05-11T06:38:36.920Z,101212.16
2019-05-11T06:41:02.773Z,101210.67
2019-05-11T06:43:28.693Z,101215.38
2019-05-11T06:45:54.537Z,101219.25
2019-05-11T06:48:20.456Z,101234.48
2019-05-11T06:50:46.372Z,101238.08
2019-05-11T06:53:12.243Z,101235.58
2019-05-11T06:55:38.095Z,101238.00
2019-05-11T06:58:04.130Z,101237.00
2019-05-11T07:00:30.049Z,101240.39
2019-05-11T07:02:55.882Z,101232.19
2019-05-11T07:05:21.750Z,101242.17
2019-05-11T07:07:48.108Z,101238.63
2019-05-11T07:10:14.377Z,101244.31
2019-05-11T07:12:40.246Z,101243.66
2019-05-11T07:15:06.807Z,101244.48
2019-05-11T07:17:32.669Z,101247.61
2019-05-11T07:19:58.543Z,101243.98
2019-05-11T07:22:24.705Z,101255.81
2019-05-11T07:24:50.555Z,101262.94
2019-05-11T07:27:16.419Z,101256.48
2019-05-11T07:29:42.306Z,101255.95
2019-05-11T07:32:20.016Z,101250.58
2019-05-11T07:34:38.222Z,101265.13
2019-05-11T07:37:03.689Z,101263.28
2019-05-11T07:39:29.542Z,101271.80
2019-05-11T07:41:55.411Z,101271.82
2019-05-11T07:44:35.037Z,101280.34
2019-05-11T07:46:49.033Z,101280.34
2019-05-11T07:49:14.889Z,101282.86
2019-05-11T07:51:40.736Z,101293.64
2019-05-11T07:54:08.413Z,101296.44
2019-05-11T07:56:34.362Z,101303.55
2019-05-11T07:59:00.215Z,101298.56
2019-05-11T08:01:28.218Z,101302.75
2019-05-11T08:03:53.834Z,101299.09
2019-05-11T08:06:19.700Z,101305.75
2019-05-11T08:08:45.552Z,101307.02
2019-05-11T08:11:11.409Z,101311.08
2019-05-11T08:13:38.889Z,101314.19
2019-05-11T08:16:04.969Z,101324.28
2019-05-11T08:18:30.818Z,101330.98
2019-05-11T08:20:58.289Z,101331.12
2019-05-11T08:23:24.336Z,101326.31
2019-05-11T08:25:50.220Z,101329.56
2019-05-11T08:28:18.189Z,101326.95
2019-05-11T08:30:43.848Z,101344.69
2019-05-11T08:33:09.720Z,101343.55
2019-05-11T08:35:35.570Z,101354.22
2019-05-11T08:38:01.426Z,101339.19
2019-05-11T08:40:28.873Z,101343.09
2019-05-11T08:42:54.941Z,101351.47
2019-05-11T08:45:24.572Z,101350.08
2019-05-11T08:47:48.736Z,101347.75
2019-05-11T08:50:15.465Z,101345.66
2019-05-11T08:52:41.496Z,101356.10
2019-05-11T08:55:08.507Z,101347.32
2019-05-11T08:57:34.514Z,101365.54
2019-05-11T09:00:00.382Z,101363.20
2019-05-11T09:02:27.820Z,101368.42
2019-05-11T09:04:53.939Z,101361.97
2019-05-11T09:07:19.800Z,101367.07
2019-05-11T09:09:45.662Z,101366.41
2019-05-11T09:12:11.525Z,101371.33
2019-05-11T09:14:38.690Z,101377.82
2019-05-11T09:17:04.717Z,101395.47
2019-05-11T09:19:30.577Z,101385.59
2019-05-11T09:21:58.704Z,101385.03
2019-05-11T09:24:24.196Z,101393.51
2019-05-11T09:26:50.068Z,101395.62
2019-05-11T09:29:17.997Z,101404.19
2019-05-11T09:31:44.509Z,101392.99
2019-05-11T09:34:10.372Z,101406.65
2019-05-11T09:36:38.525Z,101397.66
2019-05-11T09:39:08.260Z,101408.21
2019-05-11T09:41:33.951Z,101409.03
2019-05-11T09:43:59.804Z,101415.23
2019-05-11T09:46:27.751Z,101416.52
2019-05-11T09:48:53.424Z,101421.52
2019-05-11T09:51:19.303Z,101419.00
2019-05-11T09:53:45.162Z,101430.05
2019-05-11T09:56:11.031Z,101428.26
2019-05-11T09:58:38.668Z,101436.02
2019-05-11T10:01:04.670Z,101439.85
2019-05-11T10:03:30.597Z,101438.08
2019-05-11T10:05:57.954Z,101449.84
2019-05-11T10:08:24.277Z,101456.14
2019-05-11T10:10:52.476Z,101449.77
2019-05-11T10:13:18.687Z,101454.27
2019-05-11T10:15:59.297Z,101466.02
2019-05-11T10:18:12.347Z,101462.95
2019-05-11T10:20:39.217Z,101463.81
2019-05-11T10:23:05.253Z,101471.77
2019-05-11T10:25:31.133Z,101473.87
2019-05-11T10:27:57.998Z,101466.12
2019-05-11T10:30:23.957Z,101471.49
2019-05-11T10:32:50.150Z,101478.84
2019-05-11T10:35:18.172Z,101471.69
2019-05-11T10:37:43.877Z,101476.33
2019-05-11T10:40:12.075Z,101483.42
2019-05-11T10:42:38.045Z,101478.86
2019-05-11T10:45:05.565Z,101489.80
2019-05-11T10:47:31.389Z,101491.82
2019-05-11T10:49:57.896Z,101496.20
2019-05-11T10:52:24.026Z,101494.30
2019-05-11T10:54:49.938Z,101494.63
2019-05-11T10:57:15.785Z,101492.34
2019-05-11T10:59:41.741Z,101501.80
2019-05-11T11:02:08.098Z,101511.08
2019-05-11T11:04:34.308Z,101506.47
2019-05-11T11:07:00.314Z,101503.41
2019-05-11T11:09:28.162Z,101503.09
2019-05-11T11:11:54.208Z,101503.73
2019-05-11T11:14:20.077Z,101512.13
2019-05-11T11:16:47.846Z,101509.08
2019-05-11T11:19:13.682Z,101521.14
2019-05-11T11:21:39.575Z,101525.41
2019-05-11T11:24:07.500Z,101531.78
2019-05-11T11:26:33.179Z,101531.39
2019-05-11T11:28:59.050Z,101528.61
2019-05-11T11:31:24.905Z,101539.13
2019-05-11T11:33:50.750Z,101543.61
2019-05-11T11:36:17.957Z,101546.31
2019-05-11T11:38:43.970Z,101556.06
2019-05-11T11:41:09.826Z,101550.73
2019-05-11T11:43:37.640Z,101544.17
2019-05-11T11:46:03.471Z,101546.03
2019-05-11T11:48:29.353Z,101557.11
2019-05-11T11:50:55.201Z,101562.59
2019-05-11T11:53:21.069Z,101565.70
2019-05-11T11:55:48.179Z,101571.15
2019-05-11T11:58:14.169Z,101581.30
2019-05-11T12:00:40.097Z,101580.30
2019-05-11T12:03:08.009Z,101578.44
2019-05-11T12:05:33.821Z,101587.75
2019-05-11T12:07:59.698Z,101595.64
2019-05-11T12:10:25.578Z,101595.78
2019-05-11T12:12:51.433Z,101595.78
2019-05-11T12:15:17.820Z,101593.81
2019-05-11T12:17:43.748Z,101609.65
2019-05-11T12:20:09.692Z,101610.71
2019-05-11T12:22:35.579Z,101601.88
2019-05-11T12:25:01.442Z,101609.78
2019-05-11T12:27:28.692Z,101619.19
2019-05-11T12:29:54.802Z,101626.72
2019-05-11T12:32:23.422Z,101633.41
2019-05-11T12:34:49.304Z,101625.92
2019-05-11T12:37:15.239Z,101635.25
2019-05-11T12:39:41.087Z,101628.83
2019-05-11T12:42:08.593Z,101638.59
2019-05-11T12:44:34.602Z,101643.84
2019-05-11T12:47:00.469Z,101659.19
2019-05-11T12:49:28.668Z,101665.66
2019-05-11T12:51:54.173Z,101661.41
2019-05-11T12:54:20.033Z,101669.59
2019-05-11T12:56:45.888Z,101669.06
2019-05-11T12:59:11.754Z,101671.64
2019-05-11T13:01:38.098Z,101677.59
2019-05-11T13:04:04.168Z,101696.09
2019-05-11T13:06:30.043Z,101683.16
2019-05-11T13:08:55.898Z,101692.34
2019-05-11T13:11:21.757Z,101708.16
2019-05-11T13:13:48.361Z,101702.21
2019-05-11T13:16:14.585Z,101711.55
2019-05-11T13:18:40.443Z,101710.51
2019-05-11T13:21:07.713Z,101718.91
2019-05-11T13:23:33.660Z,101720.67
2019-05-11T13:25:59.529Z,101721.39
2019-05-11T13:28:25.379Z,101732.98
2019-05-11T13:30:51.246Z,101726.59
2019-05-11T13:33:19.076Z,101729.47
2019-05-11T13:35:45.006Z,101744.50
2019-05-11T13:38:10.875Z,101741.34
2019-05-11T13:40:38.178Z,101755.81
2019-05-11T13:43:04.386Z,101748.26
2019-05-11T13:45:30.943Z,101751.18
2019-05-11T13:47:59.227Z,101755.81
2019-05-11T13:50:24.405Z,101766.91
2019-05-11T13:52:50.288Z,101765.87
2019-05-11T13:55:17.891Z,101780.38
2019-05-11T13:57:43.919Z,101780.38
2019-05-11T14:00:10.185Z,101777.84
2019-05-11T14:02:37.992Z,101784.91
2019-05-11T14:05:06.108Z,101785.98
2019-05-11T14:07:31.966Z,101793.27
2019-05-11T14:09:58.893Z,101791.18
2019-05-11T14:12:24.886Z,101799.19
2019-05-11T14:14:50.746Z,101810.42
2019-05-11T14:17:18.675Z,101814.38
2019-05-11T14:19:44.400Z,101822.44
2019-05-11T14:22:10.267Z,101813.80
2019-05-11T14:24:37.607Z,101826.34
2019-05-11T14:27:03.596Z,101815.45
2019-05-11T14:29:29.461Z,101837.06
2019-05-11T14:31:55.304Z,101832.75
2019-05-11T14:34:21.677Z,101831.75
2019-05-11T14:36:48.139Z,101839.17
2019-05-11T14:39:13.985Z,101853.72
2019-05-11T14:41:39.849Z,101853.96
2019-05-11T14:44:05.789Z,101856.55
2019-05-11T14:46:31.696Z,101867.28
2019-05-11T14:48:58.547Z,101862.41
2019-05-11T14:51:24.416Z,101870.53
2019-05-11T14:53:50.299Z,101861.60
2019-05-11T14:56:18.758Z,101870.86
2019-05-11T14:58:43.906Z,101886.39
2019-05-11T15:01:09.764Z,101880.38
2019-05-11T15:03:37.861Z,101880.82
2019-05-11T15:06:03.390Z,101883.14
2019-05-11T15:08:29.249Z,101907.67
2019-05-11T15:10:55.158Z,101900.93
2019-05-11T15:13:21.054Z,101900.38
2019-05-11T15:15:48.745Z,101905.87
2019-05-11T15:18:14.657Z,101911.39
2019-05-11T15:20:40.522Z,101912.03
2019-05-11T15:23:08.619Z,101928.81
2019-05-11T15:25:34.199Z,101926.19
2019-05-11T15:28:00.054Z,101932.75
2019-05-11T15:30:25.908Z,101935.63
2019-05-11T15:32:51.759Z,101948.58
2019-05-11T15:35:18.693Z,101950.48
2019-05-11T15:37:44.888Z,101953.36
2019-05-11T15:40:15.819Z,101952.78
2019-05-11T15:42:42.024Z,101956.48
2019-05-11T15:45:10.612Z,101971.37
2019-05-11T15:47:37.734Z,101962.11
2019-05-11T15:50:08.140Z,101977.66
2019-05-11T15:52:33.741Z,101993.54
2019-05-11T15:54:59.598Z,101988.30
2019-05-11T15:57:25.484Z,102002.78
2019-05-11T15:59:51.358Z,101993.56
2019-05-11T16:02:17.977Z,102000.41
2019-05-11T16:04:43.917Z,102019.17
2019-05-11T16:07:09.792Z,102018.91
2019-05-11T16:09:37.886Z,102021.08
2019-05-11T16:12:03.427Z,102021.30
2019-05-11T16:14:29.293Z,102028.23
2019-05-11T16:16:55.204Z,102030.33
2019-05-11T16:19:21.074Z,102032.58
2019-05-11T16:21:46.939Z,102044.05
2019-05-11T16:24:12.786Z,102039.84
2019-05-11T16:26:38.990Z,102057.64
2019-05-11T16:29:04.834Z,102065.64
2019-05-11T16:31:30.704Z,102067.52
2019-05-11T16:33:58.762Z,102070.23
2019-05-11T16:36:24.348Z,102068.45
2019-05-11T16:38:50.413Z,102084.72
2019-05-11T16:41:17.897Z,102069.53
2019-05-11T16:43:44.045Z,102080.58
2019-05-11T16:46:09.897Z,102078.48
2019-05-11T16:48:38.127Z,102083.48
2019-05-11T16:51:03.529Z,102082.40
2019-05-11T16:53:29.412Z,102078.91
2019-05-11T16:55:57.595Z,102080.58
2019-05-11T16:58:23.131Z,102098.58
2019-05-11T17:00:49.324Z,102090.49
2019-05-11T17:03:15.273Z,102120.41
2019-05-11T17:05:41.146Z,102112.39
2019-05-11T17:08:08.114Z,102117.73
2019-05-11T17:10:34.071Z,102121.62
2019-05-11T17:12:59.924Z,102122.75
2019-05-11T17:15:25.780Z,102123.23
2019-05-11T17:17:51.636Z,102136.61
2019-05-11T17:20:18.742Z,102130.84
2019-05-11T17:22:44.948Z,102135.15
2019-05-11T17:25:10.806Z,102145.08
2019-05-11T17:27:37.691Z,102153.77
2019-05-11T17:30:08.637Z,102150.96
2019-05-11T17:32:35.105Z,102164.19
2019-05-11T17:35:01.183Z,102162.34
2019-05-11T17:37:28.603Z,102167.08
2019-05-11T17:39:54.708Z,102177.72
2019-05-11T17:42:20.585Z,102180.24
2019-05-11T17:44:48.411Z,102192.22
2019-05-11T17:47:14.209Z,102191.31
2019-05-11T17:49:40.091Z,102202.55
2019-05-11T17:52:08.011Z,102217.30
2019-05-11T17:54:33.692Z,102223.09
2019-05-11T17:56:59.590Z,102215.27
2019-05-11T17:59:27.886Z,102227.44
2019-05-11T18:01:53.150Z,102225.52
2019-05-11T18:04:19.015Z,102234.34
2019-05-11T18:06:44.873Z,102225.71
2019-05-11T18:09:10.734Z,102224.42
2019-05-11T18:11:38.058Z,102228.83
2019-05-11T18:14:04.391Z,102236.72
2019-05-11T18:16:30.243Z,102251.66
2019-05-11T18:18:58.335Z,102261.28
2019-05-11T18:21:23.908Z,102263.42
2019-05-11T18:23:49.773Z,102270.05
2019-05-11T18:26:17.938Z,102270.05
2019-05-11T18:28:43.409Z,102270.94
2019-05-11T18:31:09.270Z,102273.16
2019-05-11T18:33:35.166Z,102284.94
2019-05-11T18:36:01.019Z,102294.95
2019-05-11T18:38:27.625Z,102304.94
2019-05-11T18:40:53.674Z,102311.20
2019-05-11T18:43:19.541Z,102322.67
2019-05-11T18:45:45.402Z,102321.05
2019-05-11T18:48:11.295Z,102323.23
2019-05-11T18:50:38.409Z,102331.66
2019-05-11T18:53:04.517Z,102330.19
2019-05-11T18:55:30.484Z,102336.58
2019-05-11T18:57:58.079Z,102341.95
2019-05-11T19:00:24.016Z,102352.72
2019-05-11T19:02:50.098Z,102358.82
2019-05-11T19:05:18.066Z,102348.52
2019-05-11T19:07:43.806Z,102356.86
2019-05-11T19:10:09.873Z,102363.80
2019-05-11T19:12:37.699Z,102369.80
2019-05-11T19:15:07.726Z,102372.28
2019-05-11T19:17:33.757Z,102371.12
2019-05-11T19:19:59.648Z,102384.25
2019-05-11T19:22:25.537Z,102388.86
2019-05-11T19:24:51.390Z,102398.59
2019-05-11T19:27:18.567Z,102403.55
2019-05-11T19:29:44.629Z,102403.52
2019-05-11T19:32:11.149Z,102426.48
2019-05-11T19:34:38.777Z,102414.64
2019-05-11T19:37:04.846Z,102423.33
2019-05-11T19:39:30.709Z,102443.22
2019-05-11T19:41:58.098Z,102453.22
2019-05-11T19:44:23.976Z,102455.69
2019-05-11T19:46:49.843Z,102456.08
2019-05-11T19:49:15.713Z,102452.59
2019-05-11T19:51:42.516Z,102455.92
2019-05-11T19:54:08.627Z,102455.77
2019-05-11T19:56:34.578Z,102460.49
2019-05-11T19:59:00.437Z,102472.17
2019-05-11T20:01:27.928Z,102470.68
2019-05-11T20:03:53.993Z,102470.86
2019-05-11T20:06:19.854Z,102488.63
2019-05-11T20:08:45.757Z,102487.68
2019-05-11T20:11:11.617Z,102487.68
2019-05-11T20:13:38.811Z,102507.97
2019-05-11T20:16:04.890Z,102503.85
2019-05-11T20:18:30.766Z,102504.19
2019-05-11T20:20:56.730Z,102509.25
2019-05-11T20:23:22.594Z,102518.89
2019-05-11T20:25:48.602Z,102517.92
2019-05-11T20:28:14.478Z,102523.64
2019-05-11T20:30:40.344Z,102528.94
2019-05-11T20:33:08.568Z,102530.48
2019-05-11T20:35:34.033Z,102541.50
2019-05-11T20:37:59.928Z,102537.16
2019-05-11T20:40:25.801Z,102539.55
2019-05-11T20:42:51.694Z,102542.69
2019-05-11T20:45:18.524Z,102551.31
2019-05-11T20:47:44.908Z,102549.98
2019-05-11T20:50:10.913Z,102560.47
2019-05-11T20:52:38.966Z,102563.10
2019-05-11T20:55:05.436Z,102573.12
2019-05-11T20:57:31.296Z,102579.64
2019-05-11T20:59:57.573Z,102583.40
2019-05-11T21:02:23.509Z,102581.52
2019-05-11T21:04:49.399Z,102582.70
2019-05-11T21:07:15.252Z,102592.79
2019-05-11T21:09:41.129Z,102596.15
2019-05-11T21:12:08.184Z,102595.28
2019-05-11T21:14:34.134Z,102599.39
2019-05-11T21:17:00.021Z,102601.84
2019-05-11T21:19:28.169Z,102601.44
2019-05-11T21:21:54.033Z,102606.42
2019-05-11T21:24:19.998Z,102613.36
2019-05-11T21:26:47.883Z,102619.32
2019-05-11T21:29:13.604Z,102618.94
2019-05-11T21:31:40.756Z,102624.98
2019-05-11T21:34:08.204Z,102628.52
2019-05-11T21:36:34.181Z,102631.96
2019-05-11T21:39:00.047Z,102641.31
2019-05-11T21:41:28.223Z,102645.05
2019-05-11T21:43:53.667Z,102646.23
2019-05-11T21:46:19.574Z,102667.98
2019-05-11T21:48:47.668Z,102661.64
2019-05-11T21:51:13.186Z,102665.34
2019-05-11T21:53:39.219Z,102669.05
2019-05-11T21:56:05.080Z,102671.47
2019-05-11T21:58:30.938Z,102668.63
2019-05-11T22:00:56.991Z,102686.42
2019-05-11T22:03:22.851Z,102675.62
2019-05-11T22:05:48.714Z,102689.16
2019-05-11T22:08:14.592Z,102682.91
2019-05-11T22:10:40.441Z,102692.84
2019-05-11T22:13:06.322Z,102698.17
2019-05-11T22:15:32.170Z,102701.67
2019-05-11T22:17:58.531Z,102708.37
2019-05-11T22:20:24.602Z,102722.40
2019-05-11T22:22:50.462Z,102715.64
2019-05-11T22:25:18.378Z,102721.74
2019-05-11T22:27:44.069Z,102727.66
2019-05-11T22:30:10.529Z,102729.87
2019-05-11T22:32:38.372Z,102724.28
2019-05-11T22:35:08.267Z,102731.33
2019-05-11T22:37:34.104Z,102726.40
2019-05-11T22:39:59.977Z,102730.41
2019-05-11T22:42:28.029Z,102734.34
2019-05-11T22:44:53.595Z,102731.61
2019-05-11T22:47:19.485Z,102736.37
2019-05-11T22:49:45.323Z,102741.38
2019-05-11T22:52:11.182Z,102743.27
2019-05-11T22:54:38.315Z,102741.33
2019-05-11T22:57:04.380Z,102742.13
2019-05-11T22:59:30.235Z,102748.90
2019-05-11T23:01:56.084Z,102751.95
2019-05-11T23:04:21.943Z,102756.55
2019-05-11T23:06:47.853Z,102768.07
2019-05-11T23:09:13.643Z,102769.72
2019-05-11T23:11:39.517Z,102771.77
2019-05-11T23:14:05.396Z,102770.71
2019-05-11T23:16:31.213Z,102779.47
2019-05-11T23:18:57.320Z,102782.13
2019-05-11T23:21:23.169Z,102782.03
2019-05-11T23:23:49.026Z,102783.68
2019-05-11T23:26:14.878Z,102794.43
2019-05-11T23:28:40.730Z,102803.02
2019-05-11T23:31:08.901Z,102794.42
2019-05-11T23:33:34.393Z,102803.41
2019-05-11T23:36:00.300Z,102812.73
2019-05-11T23:38:28.134Z,102808.32
2019-05-11T23:40:53.922Z,102812.09
2019-05-11T23:43:19.881Z,102814.28
2019-05-11T23:45:45.793Z,102804.67
2019-05-11T23:48:11.646Z,102815.36
2019-05-11T23:50:38.867Z,102819.64
2019-05-11T23:53:06.826Z,102825.23
2019-05-11T23:55:32.658Z,102821.05
2019-05-11T23:57:58.506Z,102831.19
